Time;durP1;ratioP1;P1;durP2;ratioP2;P2;SDS_P1;SDS_P2;PMS_P1;PMS_P2;Temp;Humidity;BMP_temperature;BMP_pressure;BME280_temperature;BME280_humidity;BME280_pressure;Samples;Min_cycle;Max_cycle;Signal;HPM_P1;HPM_P2
2021/08/07 00:01:53;;;;;;;1.85;1.20;;;23.60;60.40;;;;;;5072738;28;20068;-49
2021/08/07 00:04:19;;;;;;;1.83;1.02;;;23.60;60.40;;;;;;5073700;28;20102;-52
2021/08/07 00:06:45;;;;;;;2.95;1.33;;;23.60;60.60;;;;;;5072101;28;20363;-48
2021/08/07 00:09:10;;;;;;;1.88;1.20;;;23.60;61.10;;;;;;5067621;28;20021;-52
2021/08/07 00:11:36;;;;;;;2.17;0.98;;;23.70;61.30;;;;;;5052440;28;20028;-51
2021/08/07 00:14:02;;;;;;;2.03;0.82;;;23.80;61.30;;;;;;5052224;28;20052;-53
2021/08/07 00:16:28;;;;;;;1.33;1.02;;;23.80;61.30;;;;;;5052673;28;20059;-54
2021/08/07 00:18:53;;;;;;;2.05;0.90;;;23.70;61.10;;;;;;5051953;28;20029;-50
2021/08/07 00:21:19;;;;;;;1.60;1.00;;;23.80;61.20;;;;;;5052892;28;20104;-50
2021/08/07 00:23:44;;;;;;;1.95;1.02;;;23.80;61.20;;;;;;5052100;28;20057;-52
2021/08/07 00:26:10;;;;;;;1.73;1.00;;;23.80;61.20;;;;;;5067234;28;20036;-51
2021/08/07 00:28:36;;;;;;;1.85;0.90;;;23.80;61.30;;;;;;5072534;28;20024;-51
2021/08/07 00:31:02;;;;;;;2.42;1.00;;;23.80;61.30;;;;;;5071947;28;20397;-51
2021/08/07 00:33:27;;;;;;;3.20;1.05;;;23.80;61.30;;;;;;5072294;28;20167;-49
2021/08/07 00:35:53;;;;;;;1.40;1.05;;;23.70;61.30;;;;;;5070712;28;20050;-50
2021/08/07 00:38:19;;;;;;;2.15;1.00;;;23.70;61.50;;;;;;5072451;28;20106;-54
2021/08/07 00:40:44;;;;;;;2.30;0.80;;;23.80;61.40;;;;;;5071818;28;20051;-51
2021/08/07 00:43:10;;;;;;;1.60;0.80;;;23.80;61.40;;;;;;5072228;28;20024;-53
2021/08/07 00:45:40;;;;;;;1.88;1.00;;;23.70;61.30;;;;;;5072480;28;20086;-51
2021/08/07 00:48:07;;;;;;;1.60;1.00;;;23.70;61.40;;;;;;5072235;28;20109;-51
2021/08/07 00:50:32;;;;;;;1.55;1.05;;;23.80;61.60;;;;;;5071132;28;20037;-53
2021/08/07 00:52:58;;;;;;;1.00;0.80;;;23.80;61.30;;;;;;5071671;28;20032;-53
2021/08/07 00:55:24;;;;;;;1.67;1.00;;;23.70;61.40;;;;;;5072199;28;20095;-54
2021/08/07 00:57:50;;;;;;;1.40;0.77;;;23.70;61.50;;;;;;5071346;28;20029;-50
2021/08/07 01:00:16;;;;;;;1.42;1.10;;;23.70;61.50;;;;;;5072057;28;20452;-49
2021/08/07 01:02:55;;;;;;;2.95;1.05;;;23.70;61.40;;;;;;5071330;28;20056;-50
2021/08/07 01:05:27;;;;;;;2.50;1.05;;;23.70;61.40;;;;;;5071975;28;20025;-49
2021/08/07 01:08:13;;;;;;;3.20;1.10;;;23.70;61.50;;;;;;5071868;28;20028;-50
2021/08/07 01:11:07;;;;;;;1.70;0.80;;;23.70;61.60;;;;;;5054280;28;20037;-54
2021/08/07 01:13:41;;;;;;;3.20;1.00;;;23.70;61.60;;;;;;5043701;28;20437;-52
2021/08/07 01:16:11;;;;;;;3.42;1.25;;;23.70;61.60;;;;;;5052319;28;20029;-54
2021/08/07 01:18:39;;;;;;;2.40;1.10;;;23.70;61.60;;;;;;5052048;28;20083;-53
2021/08/07 01:21:14;;;;;;;2.22;1.00;;;23.70;61.50;;;;;;5051377;28;20036;-57
2021/08/07 01:23:49;;;;;;;1.27;0.85;;;23.70;61.60;;;;;;5052950;28;20478;-51
2021/08/07 01:26:18;;;;;;;2.63;0.98;;;23.70;61.60;;;;;;5055744;28;20517;-51
2021/08/07 01:28:46;;;;;;;1.67;1.00;;;23.70;61.70;;;;;;5055126;28;20037;-51
2021/08/07 01:31:14;;;;;;;3.45;1.30;;;23.70;61.70;;;;;;5055888;28;20041;-49
2021/08/07 01:33:46;;;;;;;2.20;1.02;;;23.70;61.70;;;;;;5055750;28;20445;-51
2021/08/07 01:36:14;;;;;;;1.92;0.80;;;23.70;61.70;;;;;;5055624;28;20026;-51
2021/08/07 01:38:43;;;;;;;1.30;0.90;;;23.70;61.70;;;;;;5055475;28;20365;-50
2021/08/07 01:41:19;;;;;;;2.70;1.05;;;23.70;61.40;;;;;;5055831;28;20354;-50
2021/08/07 01:43:46;;;;;;;2.28;1.10;;;23.60;61.30;;;;;;5055169;28;20064;-52
2021/08/07 01:46:14;;;;;;;1.10;0.80;;;23.60;61.10;;;;;;5055320;28;20101;-50
2021/08/07 01:48:52;;;;;;;2.65;0.88;;;23.60;61.50;;;;;;5055210;28;20470;-49
2021/08/07 01:51:22;;;;;;;1.23;0.90;;;23.60;61.70;;;;;;5055823;28;20044;-48
2021/08/07 01:53:50;;;;;;;2.75;0.90;;;23.70;61.70;;;;;;5054966;28;20025;-52
2021/08/07 01:56:34;;;;;;;2.00;1.00;;;23.70;62.30;;;;;;5071266;28;20029;-51
2021/08/07 01:59:03;;;;;;;2.30;1.20;;;23.70;61.70;;;;;;5074279;28;20075;-50
2021/08/07 02:01:30;;;;;;;3.08;1.15;;;23.60;61.60;;;;;;5075078;28;20431;-52
2021/08/07 02:04:01;;;;;;;1.50;0.80;;;23.70;61.70;;;;;;5074416;28;20040;-49
2021/08/07 02:06:27;;;;;;;1.20;0.90;;;23.70;61.70;;;;;;5075257;28;20028;-54
2021/08/07 02:08:54;;;;;;;1.40;0.88;;;23.60;61.60;;;;;;5071899;28;20025;-53
2021/08/07 02:11:20;;;;;;;3.85;1.30;;;23.60;61.60;;;;;;5055071;28;20083;-49
2021/08/07 02:13:47;;;;;;;1.92;0.90;;;23.60;61.00;;;;;;5054311;28;20108;-52
2021/08/07 02:16:15;;;;;;;3.28;1.10;;;23.50;61.00;;;;;;5054786;28;20478;-53
2021/08/07 02:18:43;;;;;;;2.28;1.23;;;23.60;61.50;;;;;;5054821;28;20040;-51
2021/08/07 02:21:11;;;;;;;3.03;1.13;;;23.60;61.60;;;;;;5055226;28;20078;-50
2021/08/07 02:23:38;;;;;;;1.88;1.13;;;23.60;61.70;;;;;;5054980;28;20037;-49
2021/08/07 02:26:06;;;;;;;1.10;0.80;;;23.60;61.50;;;;;;5068097;28;20033;-51
2021/08/07 02:28:32;;;;;;;1.80;0.90;;;23.60;61.60;;;;;;5074328;28;20170;-49
2021/08/07 02:31:00;;;;;;;2.50;0.90;;;23.60;61.50;;;;;;5073856;28;20119;-49
2021/08/07 02:33:27;;;;;;;1.42;0.90;;;23.60;61.50;;;;;;5074543;28;20024;-51
2021/08/07 02:35:56;;;;;;;2.65;1.20;;;23.60;61.60;;;;;;5073309;28;20111;-52
2021/08/07 02:38:26;;;;;;;2.03;1.00;;;23.60;61.60;;;;;;5074392;28;20035;-53
2021/08/07 02:40:54;;;;;;;1.80;1.05;;;23.70;61.70;;;;;;5073943;28;20115;-49
2021/08/07 02:43:20;;;;;;;1.75;1.00;;;23.60;61.60;;;;;;5074537;28;20103;-49
2021/08/07 02:45:46;;;;;;;2.00;0.90;;;23.70;61.70;;;;;;5073625;28;20107;-51
2021/08/07 02:48:12;;;;;;;1.95;1.00;;;23.60;61.60;;;;;;5074530;28;20112;-54
2021/08/07 02:50:40;;;;;;;2.17;1.00;;;23.60;61.50;;;;;;5073099;28;20537;-53
2021/08/07 02:53:08;;;;;;;1.13;0.90;;;23.60;61.60;;;;;;5073833;28;20082;-53
2021/08/07 02:55:34;;;;;;;2.13;1.48;;;23.60;61.20;;;;;;5063955;28;20021;-50
2021/08/07 02:58:00;;;;;;;1.80;0.82;;;23.60;61.30;;;;;;5053129;28;20035;-48
2021/08/07 03:00:26;;;;;;;2.20;1.10;;;23.60;61.40;;;;;;5054170;28;20440;-52
2021/08/07 03:02:51;;;;;;;2.65;0.98;;;23.60;61.60;;;;;;5053737;28;20029;-50
2021/08/07 03:05:20;;;;;;;2.90;1.10;;;23.60;61.60;;;;;;5053846;28;20036;-52
2021/08/07 03:07:46;;;;;;;2.05;1.20;;;23.60;61.50;;;;;;5053681;28;20029;-57
2021/08/07 03:10:12;;;;;;;1.58;1.00;;;23.60;61.60;;;;;;5053847;28;20029;-54
2021/08/07 03:12:37;;;;;;;2.40;1.00;;;23.60;61.60;;;;;;5053803;28;20089;-51
2021/08/07 03:15:05;;;;;;;1.50;1.02;;;23.60;61.50;;;;;;5052962;28;20033;-48
2021/08/07 03:17:31;;;;;;;1.73;0.80;;;23.60;61.50;;;;;;5053836;28;20053;-50
2021/08/07 03:19:57;;;;;;;2.30;1.00;;;23.60;61.50;;;;;;5052101;28;20119;-51
2021/08/07 03:22:23;;;;;;;2.17;1.20;;;23.60;61.60;;;;;;5053944;28;20017;-52
2021/08/07 03:24:49;;;;;;;2.08;1.00;;;23.60;61.50;;;;;;5056861;28;20021;-50
2021/08/07 03:27:15;;;;;;;1.70;0.88;;;23.60;61.50;;;;;;5073837;28;20358;-52
2021/08/07 03:29:40;;;;;;;1.88;1.00;;;23.60;61.60;;;;;;5073301;28;20389;-54
2021/08/07 03:32:06;;;;;;;2.08;0.98;;;23.60;61.50;;;;;;5073121;28;20036;-50
2021/08/07 03:34:32;;;;;;;3.00;1.10;;;23.60;61.60;;;;;;5073637;28;20484;-51
2021/08/07 03:36:57;;;;;;;2.13;1.10;;;23.60;61.20;;;;;;5072913;28;20036;-53
2021/08/07 03:39:23;;;;;;;1.60;1.13;;;23.60;61.00;;;;;;5072517;28;20030;-52
2021/08/07 03:41:51;;;;;;;1.90;1.17;;;23.50;61.00;;;;;;5072613;28;20029;-51
2021/08/07 03:44:16;;;;;;;1.98;0.93;;;23.50;60.90;;;;;;5073216;28;20060;-55
2021/08/07 03:46:42;;;;;;;2.05;1.05;;;23.50;60.60;;;;;;5072472;28;20075;-49
2021/08/07 03:49:08;;;;;;;1.17;1.00;;;23.50;60.60;;;;;;5072496;28;20358;-54
2021/08/07 03:51:34;;;;;;;2.00;0.77;;;23.50;60.60;;;;;;5073617;28;20099;-53
2021/08/07 03:53:59;;;;;;;1.15;0.80;;;23.50;61.10;;;;;;5072176;28;20021;-51
2021/08/07 03:56:25;;;;;;;2.28;1.00;;;23.50;61.20;;;;;;5055844;28;20025;-54
2021/08/07 03:58:51;;;;;;;2.63;1.10;;;23.60;61.10;;;;;;5054432;28;20135;-54
2021/08/07 04:01:17;;;;;;;1.55;0.85;;;23.50;61.00;;;;;;5052619;28;20049;-52
2021/08/07 04:03:42;;;;;;;1.85;1.00;;;23.60;61.20;;;;;;5052801;28;20032;-51
2021/08/07 04:06:08;;;;;;;1.75;1.30;;;23.60;61.00;;;;;;5051933;28;20025;-52
2021/08/07 04:08:34;;;;;;;1.38;1.10;;;23.60;61.00;;;;;;5052165;28;20032;-51
2021/08/07 04:11:00;;;;;;;2.78;1.00;;;23.60;61.00;;;;;;5051492;28;20112;-52
2021/08/07 04:13:25;;;;;;;1.67;0.93;;;23.60;60.90;;;;;;5052296;28;20025;-49
2021/08/07 04:15:51;;;;;;;3.35;1.00;;;23.60;60.80;;;;;;5051450;28;20028;-53
2021/08/07 04:18:17;;;;;;;2.22;1.02;;;23.60;61.00;;;;;;5051266;28;20017;-51
2021/08/07 04:20:43;;;;;;;1.58;0.95;;;23.60;60.90;;;;;;5052197;28;20079;-50
2021/08/07 04:23:09;;;;;;;1.65;0.90;;;23.60;60.90;;;;;;5051699;28;20082;-53
2021/08/07 04:25:35;;;;;;;1.98;1.02;;;23.60;61.00;;;;;;5051843;28;20450;-52
2021/08/07 04:28:01;;;;;;;2.45;1.10;;;23.60;61.00;;;;;;5051495;28;20428;-52
2021/08/07 04:30:27;;;;;;;1.20;0.70;;;23.60;60.90;;;;;;5050813;28;20367;-52
2021/08/07 04:32:53;;;;;;;2.58;0.90;;;23.60;60.90;;;;;;5051370;28;20028;-49
2021/08/07 04:35:18;;;;;;;1.23;1.05;;;23.60;60.80;;;;;;5052477;28;20025;-52
2021/08/07 04:37:53;;;;;;;3.75;0.82;;;23.60;60.80;;;;;;5052034;28;20366;-51
2021/08/07 04:40:20;;;;;;;2.97;0.75;;;23.60;60.80;;;;;;5049554;28;20116;-53
2021/08/07 04:42:46;;;;;;;1.88;0.95;;;23.60;60.80;;;;;;5051611;28;20470;-51
2021/08/07 04:45:12;;;;;;;2.45;1.30;;;23.60;60.80;;;;;;5051187;28;20071;-51
2021/08/07 04:48:09;;;;;;;3.58;1.27;;;23.60;60.80;;;;;;5051858;28;20037;-51
2021/08/07 04:50:35;;;;;;;1.35;0.80;;;23.60;60.80;;;;;;5051250;28;20466;-53
2021/08/07 04:53:02;;;;;;;1.02;0.85;;;23.60;60.70;;;;;;5051292;28;20406;-52
2021/08/07 04:55:28;;;;;;;2.03;1.10;;;23.60;60.80;;;;;;5051568;28;20403;-52
2021/08/07 04:57:54;;;;;;;1.73;1.00;;;23.60;60.60;;;;;;5050607;28;20045;-51
2021/08/07 05:00:21;;;;;;;3.25;1.88;;;23.60;60.70;;;;;;5051955;28;20079;-50
2021/08/07 05:02:47;;;;;;;2.22;1.08;;;23.60;61.10;;;;;;5051639;28;20025;-49
2021/08/07 05:05:14;;;;;;;2.28;1.00;;;23.60;60.50;;;;;;5051178;28;20455;-51
2021/08/07 05:07:40;;;;;;;2.80;1.02;;;23.60;60.60;;;;;;5051676;28;20028;-53
2021/08/07 05:10:08;;;;;;;2.05;0.90;;;23.60;60.60;;;;;;5050972;28;20107;-53
2021/08/07 05:12:34;;;;;;;1.98;1.13;;;23.60;60.50;;;;;;5051644;28;20028;-51
2021/08/07 05:15:00;;;;;;;1.40;0.88;;;23.60;61.20;;;;;;5050822;28;20017;-52
2021/08/07 05:17:26;;;;;;;1.52;1.00;;;23.60;60.50;;;;;;5032667;28;20036;-51
2021/08/07 05:19:52;;;;;;;1.80;0.80;;;23.60;60.50;;;;;;5050968;28;20029;-50
2021/08/07 05:22:18;;;;;;;1.75;0.95;;;23.60;60.50;;;;;;5051112;28;20374;-53
2021/08/07 05:24:45;;;;;;;1.90;0.82;;;23.60;60.50;;;;;;5053109;28;20024;-53
2021/08/07 05:27:11;;;;;;;1.48;1.00;;;23.60;60.40;;;;;;5050746;28;20343;-51
2021/08/07 05:29:37;;;;;;;1.80;1.00;;;23.60;60.50;;;;;;5048436;28;20033;-49
2021/08/07 05:32:03;;;;;;;1.83;1.00;;;23.60;60.50;;;;;;5050385;28;20087;-51
2021/08/07 05:34:28;;;;;;;1.50;0.85;;;23.60;60.50;;;;;;5051278;28;20029;-52
2021/08/07 05:36:54;;;;;;;1.42;0.93;;;23.60;60.40;;;;;;5050569;28;20028;-50
2021/08/07 05:39:20;;;;;;;2.30;0.88;;;23.60;60.50;;;;;;5051507;28;20119;-52
2021/08/07 05:41:46;;;;;;;2.47;1.05;;;23.60;60.40;;;;;;5051137;28;20076;-52
2021/08/07 05:44:11;;;;;;;1.42;0.90;;;23.60;60.50;;;;;;5050839;28;20386;-53
2021/08/07 05:46:37;;;;;;;1.83;0.90;;;23.60;60.40;;;;;;5050367;28;20029;-52
2021/08/07 05:49:03;;;;;;;2.10;0.90;;;23.60;60.40;;;;;;5049648;28;20105;-49
2021/08/07 05:51:28;;;;;;;1.63;1.20;;;23.60;60.40;;;;;;5050755;28;20120;-49
2021/08/07 05:53:54;;;;;;;1.08;0.80;;;23.60;60.40;;;;;;5050536;28;20017;-51
2021/08/07 05:56:20;;;;;;;2.63;1.25;;;23.60;60.40;;;;;;5051323;28;20022;-51
2021/08/07 05:58:46;;;;;;;2.65;0.82;;;23.60;60.30;;;;;;5051363;28;20405;-50
2021/08/07 06:01:12;;;;;;;1.50;1.02;;;23.60;60.30;;;;;;5050832;28;20502;-50
2021/08/07 06:03:37;;;;;;;1.50;0.95;;;23.60;60.30;;;;;;5051040;28;20135;-52
2021/08/07 06:06:03;;;;;;;2.40;0.90;;;23.60;60.30;;;;;;5050650;28;20025;-50
2021/08/07 06:08:29;;;;;;;1.65;0.88;;;23.60;60.30;;;;;;5050889;28;20032;-55
2021/08/07 06:10:56;;;;;;;4.70;1.20;;;23.60;60.30;;;;;;5053120;28;20037;-51
2021/08/07 06:13:22;;;;;;;1.98;0.93;;;23.60;60.30;;;;;;5054774;28;20087;-49
2021/08/07 06:15:48;;;;;;;1.67;0.90;;;23.60;60.40;;;;;;5054534;28;20056;-50
2021/08/07 06:18:13;;;;;;;2.17;1.20;;;23.60;60.40;;;;;;5053817;28;20395;-52
2021/08/07 06:20:39;;;;;;;2.63;0.88;;;23.60;60.40;;;;;;5054725;28;20029;-53
2021/08/07 06:23:05;;;;;;;1.67;0.80;;;23.60;60.40;;;;;;5054016;28;20056;-48
2021/08/07 06:25:31;;;;;;;1.83;0.80;;;23.60;60.40;;;;;;5054677;28;20029;-51
2021/08/07 06:27:56;;;;;;;2.15;1.13;;;23.60;59.80;;;;;;5050887;28;20032;-50
2021/08/07 06:30:24;;;;;;;3.67;1.25;;;23.60;59.10;;;;;;5054022;28;20076;-54
2021/08/07 06:32:50;;;;;;;1.83;1.20;;;23.60;59.20;;;;;;5054457;28;20087;-53
2021/08/07 06:35:16;;;;;;;3.88;1.38;;;23.60;59.50;;;;;;5053742;28;20020;-53
2021/08/07 06:37:42;;;;;;;2.00;0.88;;;23.60;59.10;;;;;;5054066;28;20028;-51
2021/08/07 06:40:09;;;;;;;2.90;0.90;;;23.60;59.10;;;;;;5053342;28;20477;-52
2021/08/07 06:42:34;;;;;;;2.15;1.20;;;23.60;59.20;;;;;;5053670;28;20091;-49
2021/08/07 06:45:00;;;;;;;1.83;1.00;;;23.60;59.20;;;;;;5053047;28;20021;-54
2021/08/07 06:47:26;;;;;;;3.50;0.90;;;23.60;60.00;;;;;;5053477;28;20032;-53
2021/08/07 06:49:52;;;;;;;2.33;1.02;;;23.60;60.00;;;;;;5044080;28;20087;-57
2021/08/07 06:52:17;;;;;;;3.17;1.20;;;23.70;60.00;;;;;;5052388;28;20024;-52
2021/08/07 06:54:43;;;;;;;1.02;0.77;;;23.70;59.90;;;;;;5053861;28;20024;-50
2021/08/07 06:57:17;;;;;;;3.40;1.10;;;23.80;59.90;;;;;;5052845;28;20163;-51
2021/08/07 06:59:43;;;;;;;1.17;0.93;;;23.80;60.00;;;;;;5049483;28;20371;-49
2021/08/07 07:02:10;;;;;;;1.73;0.93;;;23.90;60.20;;;;;;5052159;28;20048;-48
2021/08/07 07:04:36;;;;;;;5.28;1.08;;;23.90;60.20;;;;;;5050534;28;20021;-52
2021/08/07 07:07:02;;;;;;;3.10;0.88;;;23.90;60.00;;;;;;5052929;28;20029;-49
2021/08/07 07:09:28;;;;;;;4.38;1.88;;;23.90;60.60;;;;;;5052416;28;20080;-50
2021/08/07 07:11:54;;;;;;;3.58;1.08;;;23.80;59.50;;;;;;5057120;28;20060;-48
2021/08/07 07:14:19;;;;;;;2.17;0.82;;;23.80;59.00;;;;;;5053502;28;20099;-50
2021/08/07 07:16:46;;;;;;;3.42;1.30;;;23.80;58.60;;;;;;5053830;28;20032;-54
2021/08/07 07:19:12;;;;;;;2.38;1.05;;;23.80;58.90;;;;;;5052579;28;20112;-50
2021/08/07 07:21:37;;;;;;;2.60;1.10;;;23.80;59.50;;;;;;5055062;28;20448;-47
2021/08/07 07:24:04;;;;;;;1.52;0.90;;;23.80;60.00;;;;;;5065974;28;20029;-51
2021/08/07 07:26:29;;;;;;;2.20;1.00;;;23.80;60.20;;;;;;5053213;28;20036;-50
2021/08/07 07:28:56;;;;;;;1.67;0.80;;;23.80;60.40;;;;;;5052541;28;20037;-49
2021/08/07 07:31:23;;;;;;;3.40;1.10;;;23.80;60.20;;;;;;5053083;28;20159;-48
2021/08/07 07:33:49;;;;;;;3.30;0.93;;;23.80;59.80;;;;;;5053228;28;20025;-51
2021/08/07 07:36:15;;;;;;;1.75;0.90;;;23.70;59.40;;;;;;5051919;28;20029;-47
2021/08/07 07:38:41;;;;;;;3.30;0.77;;;23.70;59.50;;;;;;5052937;28;20078;-49
2021/08/07 07:41:07;;;;;;;1.55;0.85;;;23.70;59.80;;;;;;5052384;28;20029;-48
2021/08/07 07:43:32;;;;;;;1.48;0.90;;;23.70;59.40;;;;;;5053131;28;20063;-49
2021/08/07 07:45:58;;;;;;;1.73;1.10;;;23.70;59.50;;;;;;5052367;28;20028;-47
2021/08/07 07:48:25;;;;;;;6.85;1.08;;;23.70;59.60;;;;;;5052777;28;20040;-47
2021/08/07 07:50:51;;;;;;;3.70;1.02;;;23.70;59.60;;;;;;5056862;28;20057;-50
2021/08/07 07:53:17;;;;;;;3.05;1.13;;;23.70;59.40;;;;;;5071788;28;20036;-50
2021/08/07 07:55:43;;;;;;;2.13;1.15;;;23.70;59.30;;;;;;5071704;28;20154;-47
2021/08/07 07:58:09;;;;;;;4.22;0.95;;;23.70;60.10;;;;;;5042451;28;20116;-49
2021/08/07 08:00:35;;;;;;;2.72;0.90;;;23.80;59.30;;;;;;5052029;28;20055;-48
2021/08/07 08:03:01;;;;;;;2.53;0.80;;;23.80;59.20;;;;;;5052698;28;20078;-54
2021/08/07 08:05:27;;;;;;;3.35;0.85;;;23.90;59.10;;;;;;5051902;28;20037;-50
2021/08/07 08:07:53;;;;;;;1.40;0.90;;;23.80;59.10;;;;;;5052333;28;20021;-54
2021/08/07 08:10:19;;;;;;;3.83;0.88;;;23.80;59.30;;;;;;5051938;28;20412;-49
2021/08/07 08:12:45;;;;;;;4.63;1.27;;;23.80;59.30;;;;;;5052374;28;20060;-53
2021/08/07 08:15:12;;;;;;;3.88;1.02;;;23.90;59.30;;;;;;5050988;28;20064;-48
2021/08/07 08:17:38;;;;;;;2.67;0.75;;;23.90;59.30;;;;;;5050854;28;20021;-50
2021/08/07 08:20:06;;;;;;;2.63;1.08;;;23.90;59.20;;;;;;5050906;28;20044;-49
2021/08/07 08:22:32;;;;;;;3.53;0.93;;;23.90;58.90;;;;;;5050424;28;20040;-48
2021/08/07 08:24:59;;;;;;;2.97;0.80;;;24.00;58.70;;;;;;5051556;28;20029;-55
2021/08/07 08:27:24;;;;;;;4.60;1.15;;;24.00;58.60;;;;;;5050921;28;20104;-48
2021/08/07 08:29:50;;;;;;;3.50;1.45;;;24.00;59.00;;;;;;5051532;28;20104;-52
2021/08/07 08:32:16;;;;;;;2.42;1.10;;;24.00;58.80;;;;;;5050188;28;20047;-49
2021/08/07 08:34:42;;;;;;;4.70;1.10;;;24.00;58.80;;;;;;5053725;28;20466;-49
2021/08/07 08:37:08;;;;;;;2.35;0.90;;;24.00;58.30;;;;;;5070165;28;20032;-50
2021/08/07 08:39:34;;;;;;;4.28;1.10;;;24.00;57.90;;;;;;5071575;28;20433;-47
2021/08/07 08:42:00;;;;;;;4.20;1.10;;;24.00;57.60;;;;;;5071196;28;20024;-54
2021/08/07 08:44:26;;;;;;;2.63;1.10;;;24.00;58.00;;;;;;5071174;28;20033;-51
2021/08/07 08:46:52;;;;;;;5.30;1.20;;;23.90;58.30;;;;;;5072015;28;20409;-48
2021/08/07 08:49:20;;;;;;;2.72;1.02;;;23.90;57.60;;;;;;5070602;28;20902;-47
2021/08/07 08:51:47;;;;;;;2.88;1.50;;;23.80;58.00;;;;;;5057741;28;20052;-53
2021/08/07 08:54:13;;;;;;;5.30;1.17;;;23.70;58.10;;;;;;5050305;28;20064;-47
2021/08/07 08:56:38;;;;;;;3.50;1.25;;;23.70;58.20;;;;;;5046449;28;20667;-50
2021/08/07 08:59:05;;;;;;;6.10;1.50;;;23.60;58.40;;;;;;5050156;28;20029;-49
2021/08/07 09:01:31;;;;;;;4.45;1.25;;;23.60;58.70;;;;;;5051066;28;20061;-47
2021/08/07 09:03:58;;;;;;;2.30;1.25;;;23.50;58.80;;;;;;5050865;28;20071;-51
2021/08/07 09:06:24;;;;;;;4.03;1.20;;;23.50;58.40;;;;;;5049159;28;20116;-49
2021/08/07 09:09:10;;;;;;;5.88;1.42;;;23.50;57.30;;;;;;5050836;28;20104;-48
2021/08/07 09:11:53;;;;;;;2.78;1.33;;;23.40;58.20;;;;;;5051483;28;20040;-49
2021/08/07 09:14:29;;;;;;;3.05;1.48;;;23.50;57.40;;;;;;5050230;28;20033;-49
2021/08/07 09:16:58;;;;;;;6.43;1.95;;;23.60;57.60;;;;;;5051165;28;20487;-49
2021/08/07 09:19:44;;;;;;;5.07;2.53;;;23.50;58.10;;;;;;5050327;28;20116;-59
2021/08/07 09:22:12;;;;;;;4.63;1.42;;;23.40;58.50;;;;;;5059557;28;20047;-48
2021/08/07 09:24:57;;;;;;;3.35;1.20;;;23.30;57.20;;;;;;5069864;28;20017;-53
2021/08/07 09:27:44;;;;;;;2.42;1.00;;;23.30;56.70;;;;;;5064202;28;20079;-47
2021/08/07 09:30:12;;;;;;;4.93;1.58;;;23.30;57.40;;;;;;5051070;28;20041;-50
2021/08/07 09:32:54;;;;;;;4.63;1.60;;;23.30;56.80;;;;;;5051353;28;20037;-50
2021/08/07 09:35:41;;;;;;;3.65;0.98;;;23.40;56.80;;;;;;5058243;28;20247;-49
2021/08/07 09:38:24;;;;;;;3.85;1.08;;;23.50;56.90;;;;;;5070657;28;20039;-50
2021/08/07 09:40:51;;;;;;;3.00;0.93;;;23.60;57.10;;;;;;5070680;28;20481;-48
2021/08/07 09:43:28;;;;;;;2.78;1.05;;;23.50;56.50;;;;;;5070919;28;20366;-53
2021/08/07 09:46:21;;;;;;;2.20;1.08;;;23.50;57.10;;;;;;5074428;28;20533;-50
2021/08/07 09:48:49;;;;;;;3.33;1.17;;;23.40;56.30;;;;;;5075517;28;20025;-49
2021/08/07 09:51:27;;;;;;;1.30;1.00;;;23.50;57.20;;;;;;5074236;28;20037;-51
2021/08/07 09:54:14;;;;;;;2.58;0.80;;;23.50;56.70;;;;;;5075074;28;20032;-51
2021/08/07 09:56:52;;;;;;;2.50;0.90;;;23.30;56.40;;;;;;5075353;28;20029;-50
2021/08/07 09:59:21;;;;;;;3.17;1.05;;;23.40;56.90;;;;;;5074151;28;20040;-50
2021/08/07 10:01:49;;;;;;;4.72;1.15;;;23.30;58.00;;;;;;5074974;28;20473;-49
2021/08/07 10:04:15;;;;;;;5.18;1.73;;;23.40;58.40;;;;;;5074544;28;20145;-47
2021/08/07 10:06:43;;;;;;;4.72;1.75;;;23.40;58.20;;;;;;5031971;28;20379;-47
2021/08/07 10:09:10;;;;;;;6.13;1.40;;;23.50;58.20;;;;;;5053000;28;20032;-46
2021/08/07 10:11:36;;;;;;;5.60;1.35;;;23.60;58.00;;;;;;5055448;28;20466;-47
2021/08/07 10:14:02;;;;;;;6.93;1.30;;;23.70;57.90;;;;;;5051783;28;20031;-51
2021/08/07 10:16:30;;;;;;;5.15;1.30;;;23.70;57.90;;;;;;5055037;28;20348;-49
2021/08/07 10:18:57;;;;;;;4.20;1.20;;;23.80;57.90;;;;;;5055056;28;20033;-46
2021/08/07 10:21:23;;;;;;;7.03;1.50;;;23.80;57.70;;;;;;5053855;28;20032;-48
2021/08/07 10:23:52;;;;;;;5.63;1.58;;;23.90;57.70;;;;;;5054153;28;20083;-46
2021/08/07 10:26:20;;;;;;;7.32;1.23;;;23.90;57.70;;;;;;5053948;28;20076;-46
2021/08/07 10:28:55;;;;;;;4.32;1.10;;;23.90;57.60;;;;;;5054627;28;20033;-47
2021/08/07 10:31:23;;;;;;;3.53;1.40;;;23.90;57.60;;;;;;5053951;28;20267;-47
2021/08/07 10:33:52;;;;;;;4.63;1.13;;;23.90;57.70;;;;;;5053025;28;20517;-49
2021/08/07 10:36:18;;;;;;;4.97;1.02;;;23.90;57.70;;;;;;5066424;28;20390;-47
2021/08/07 10:38:46;;;;;;;1.77;1.08;;;23.90;57.80;;;;;;5054414;28;20036;-48
2021/08/07 10:41:12;;;;;;;3.28;1.10;;;23.90;57.80;;;;;;5053754;28;20359;-47
2021/08/07 10:43:39;;;;;;;5.13;1.30;;;23.90;57.90;;;;;;5054179;28;20029;-47
2021/08/07 10:46:10;;;;;;;2.15;1.30;;;23.90;58.00;;;;;;5053076;28;20025;-48
2021/08/07 10:48:45;;;;;;;3.95;1.10;;;23.90;58.00;;;;;;5054396;28;20031;-48
2021/08/07 10:51:22;;;;;;;4.25;1.60;;;23.90;58.10;;;;;;5053121;28;20142;-49
2021/08/07 10:53:52;;;;;;;5.38;1.10;;;23.90;58.20;;;;;;5074136;28;20060;-47
2021/08/07 10:56:26;;;;;;;3.30;1.25;;;23.90;58.20;;;;;;5073318;28;20044;-48
2021/08/07 10:58:53;;;;;;;3.25;0.98;;;23.90;58.20;;;;;;5074203;28;20028;-46
2021/08/07 11:01:27;;;;;;;1.92;0.93;;;23.90;58.30;;;;;;5073243;28;20052;-48
2021/08/07 11:04:07;;;;;;;4.32;1.00;;;23.90;58.40;;;;;;5074081;28;20109;-47
2021/08/07 11:06:38;;;;;;;2.60;0.90;;;23.90;58.40;;;;;;5054458;28;20454;-46
2021/08/07 11:09:25;;;;;;;3.28;1.05;;;23.90;58.40;;;;;;5052673;28;20462;-47
2021/08/07 11:12:06;;;;;;;2.15;1.00;;;23.90;58.50;;;;;;5053728;28;20037;-50
2021/08/07 11:14:35;;;;;;;2.17;1.17;;;23.90;58.60;;;;;;5053924;28;20100;-46
2021/08/07 11:17:06;;;;;;;2.45;1.33;;;23.90;58.60;;;;;;5053963;28;20347;-47
2021/08/07 11:19:54;;;;;;;2.40;1.00;;;23.90;58.60;;;;;;5053895;28;20060;-47
2021/08/07 11:22:32;;;;;;;3.33;1.13;;;23.90;58.60;;;;;;5052532;28;20455;-47
2021/08/07 11:25:04;;;;;;;1.92;0.93;;;23.90;58.60;;;;;;5053468;28;20033;-47
2021/08/07 11:27:45;;;;;;;2.38;0.90;;;23.90;58.70;;;;;;5053705;28;20033;-47
2021/08/07 11:30:28;;;;;;;1.85;0.95;;;23.90;58.70;;;;;;5052800;28;20466;-47
2021/08/07 11:32:57;;;;;;;3.65;1.02;;;23.90;58.70;;;;;;5053525;28;20029;-47
2021/08/07 11:35:45;;;;;;;5.35;1.20;;;23.90;58.80;;;;;;5061177;28;20025;-48
2021/08/07 11:38:26;;;;;;;5.20;1.65;;;23.90;58.80;;;;;;5068736;28;20135;-47
2021/08/07 11:41:08;;;;;;;2.67;0.80;;;23.90;59.40;;;;;;5073110;28;20028;-47
2021/08/07 11:43:40;;;;;;;3.78;1.15;;;23.90;58.90;;;;;;5072179;28;20056;-48
2021/08/07 11:46:11;;;;;;;2.22;0.98;;;23.90;58.90;;;;;;5072719;28;20039;-49
2021/08/07 11:48:45;;;;;;;4.22;1.55;;;23.90;59.00;;;;;;5073291;28;20029;-47
2021/08/07 11:51:14;;;;;;;3.13;1.10;;;23.90;59.00;;;;;;5071792;28;20037;-48
2021/08/07 11:53:44;;;;;;;3.85;1.23;;;23.90;59.60;;;;;;5053328;28;20192;-47
2021/08/07 11:56:13;;;;;;;1.85;0.95;;;23.90;59.00;;;;;;5052182;28;20025;-47
2021/08/07 11:58:43;;;;;;;2.15;0.90;;;23.90;59.10;;;;;;5052682;28;20466;-52
2021/08/07 12:01:08;;;;;;;3.60;1.85;;;23.90;59.10;;;;;;5052490;28;20048;-47
2021/08/07 12:03:44;;;;;;;1.60;0.88;;;23.90;59.10;;;;;;5053012;28;20032;-47
2021/08/07 12:06:10;;;;;;;3.20;1.02;;;23.90;59.10;;;;;;5059776;28;20060;-48
2021/08/07 12:08:37;;;;;;;2.17;0.90;;;23.90;59.10;;;;;;5049803;28;20029;-47
2021/08/07 12:11:11;;;;;;;3.97;1.20;;;23.90;59.10;;;;;;5051102;28;20033;-48
2021/08/07 12:13:40;;;;;;;3.42;0.90;;;23.80;59.60;;;;;;5032806;28;20466;-46
2021/08/07 12:16:07;;;;;;;2.85;1.15;;;23.80;60.30;;;;;;5052466;28;20070;-47
2021/08/07 12:18:39;;;;;;;3.42;0.90;;;23.90;60.20;;;;;;5049437;28;20021;-51
2021/08/07 12:21:05;;;;;;;;;;;23.90;60.30;;;;;;5051142;28;20033;-53
2021/08/07 12:23:49;;;;;;;1.60;0.80;;;23.90;60.40;;;;;;5053375;28;19904;-47
2021/08/07 12:26:17;;;;;;;3.22;0.95;;;23.90;60.10;;;;;;5073428;28;20482;-49
2021/08/07 12:28:43;;;;;;;2.67;0.90;;;24.00;60.20;;;;;;5054026;28;20078;-48
2021/08/07 12:31:09;;;;;;;5.90;1.20;;;24.00;60.50;;;;;;5050869;28;20033;-47
2021/08/07 12:33:38;;;;;;;4.30;1.10;;;24.00;60.50;;;;;;5052348;28;20524;-48
2021/08/07 12:36:17;;;;;;;3.72;1.05;;;24.10;60.30;;;;;;5051242;28;20036;-47
2021/08/07 12:38:45;;;;;;;5.20;1.17;;;24.10;60.40;;;;;;5049765;28;20029;-52
2021/08/07 12:41:14;;;;;;;5.68;1.30;;;24.10;60.60;;;;;;5050089;28;20044;-48
2021/08/07 12:43:39;;;;;;;3.25;0.90;;;24.20;60.70;;;;;;5050986;28;20032;-49
2021/08/07 12:46:08;;;;;;;4.75;1.25;;;24.20;60.70;;;;;;5051380;28;20021;-56
2021/08/07 12:48:45;;;;;;;5.18;1.13;;;24.20;60.80;;;;;;5051710;28;20025;-49
2021/08/07 12:51:12;;;;;;;5.22;1.00;;;24.20;61.20;;;;;;5050533;28;20126;-49
2021/08/07 12:53:46;;;;;;;2.88;1.38;;;24.30;60.90;;;;;;5070908;28;20039;-47
2021/08/07 12:56:11;;;;;;;1.73;0.98;;;24.30;60.90;;;;;;5070678;28;20073;-48